Home > Products > Valid Products > TAF

000
FTUS44 KMRX 291122
TAFTRI
TAF
KTRI 291122Z 2912/3012 VRB04KT P6SM -SHRA SCT060 OVC120
     FM292300 VRB02KT P6SM SCT050 BKN150
     FM300300 00000KT P6SM FEW060 SCT150
     FM300600 00000KT 3SM BR SCT060
     FM300900 00000KT 1SM BR SCT002 SCT060=



000
FTUS44 KMRX 291122
TAFTYS
TAF
KTYS 291122Z 2912/3012 00000KT P6SM SCT060 BKN150
     FM291500 34005KT P6SM VCSH SCT050 BKN120
     FM300000 VRB03KT P6SM FEW060 SCT150=



000
FTUS44 KMRX 291122
TAFCHA
TAF
KCHA 291122Z 2912/3012 00000KT P6SM SCT120 BKN250
     FM291500 34006KT P6SM SCT060 BKN150
     FM300000 VRB03KT P6SM FEW070 SCT150=



000
FTUS44 KMRX 290526
TAFCHA
TAF
KCHA 290526Z 2906/3006 00000KT P6SM SCT120 BKN250
     FM291500 34006KT P6SM SCT060 BKN150
     FM300000 VRB03KT P6SM FEW070 SCT150=



000
FTUS44 KMRX 290526
TAFTYS
TAF
KTYS 290526Z 2906/3006 00000KT P6SM SCT060 BKN150
     FM291500 34005KT P6SM VCSH SCT070 BKN120
     FM300000 VRB03KT P6SM FEW070 SCT150=



000
FTUS44 KMRX 290526
TAFTRI
TAF
KTRI 290526Z 2906/3006 00000KT P6SM VCSH SCT070 BKN150
     FM291300 VRB04KT P6SM -SHRA SCT060 OVC120
     FM292300 VRB02KT P6SM SCT050 BKN150
     FM300300 00000KT P6SM FEW070 SCT150=



000
FTUS44 KMRX 281720
TAFTYS
TAF
KTYS 281720Z 2818/2918 23005KT P6SM SCT040 SCT150
     FM290200 00000KT P6SM BKN100
     FM291400 VRB03KT P6SM BKN070=



000
FTUS44 KMRX 281720
TAFTRI
TAF
KTRI 281720Z 2818/2918 VRB03KT P6SM SCT040 SCT250
     FM290600 00000KT P6SM BKN150
     FM291200 VRB03KT P6SM OVC100=



000
FTUS44 KMRX 281720
TAFCHA
TAF
KCHA 281720Z 2818/2918 18007KT P6SM SCT040
     FM290000 00000KT P6SM SCT150
     FM291400 VRB03KT P6SM SCT050=



000
FTUS44 KMRX 281133
TAFTYS
TAF
KTYS 281133Z 2812/2912 VRB02KT 4SM BR SCT005
      TEMPO 2812/2813 3/4SM BR BKN002
     FM281300 23007KT P6SM SCT050 BKN250
     FM290100 VRB02KT P6SM SCT070 BKN250
     FM290900 00000KT 3SM BR SCT070 BKN200=



000
FTUS44 KMRX 281133
TAFTRI
TAF
KTRI 281133Z 2812/2912 00000KT 4SM BR SCT005
     FM281300 VRB04KT P6SM SCT040 BKN250
     FM290100 00000KT P6SM SCT070 BKN200
     FM290600 00000KT 3SM BR SCT070 BKN150=



000
FTUS44 KMRX 281133
TAFCHA
TAF
KCHA 281133Z 2812/2912 VRB03KT P6SM SCT060 BKN250
     FM281500 18007KT P6SM SCT050 BKN250
     FM290100 00000KT P6SM SCT070 BKN250=



000
FTUS44 KMRX 272320
TAFCHA
TAF
KCHA 272320Z 2800/2824 VRB03KT P6SM SCT070 SCT250
     FM281400 18006KT P6SM SCT040=



000
FTUS44 KMRX 272320
TAFTYS
TAF
KTYS 272320Z 2800/2824 00000KT P6SM SCT070 SCT250
     FM280700 VRB03KT 6SM BR SCT250
     FM281000 VRB03KT 4SM BR SCT250
     FM281400 VRB03KT P6SM SCT040=



000
FTUS44 KMRX 272320
TAFTRI
TAF
KTRI 272320Z 2800/2824 VRB03KT P6SM SCT070
     FM280300 00000KT 4SM BR BKN250
     FM280900 00000KT 2SM BR SCT250
     FM281200 00000KT 4SM BR SCT250
     FM281400 VRB03KT P6SM SCT040=



000
FTUS44 KMRX 271818 AAA
TAFTYS
TAF AMD
KTYS 271818Z 2718/2818 22008KT P6SM VCTS BKN050CB
      TEMPO 2718/2720 2SM -TSRA OVC025CB
     FM280000 00000KT P6SM SCT070 SCT250
     FM281400 VRB03KT P6SM SCT040=



000
FTUS44 KMRX 271720
TAFCHA
TAF
KCHA 271720Z 2718/2818 19007KT P6SM VCTS BKN050CB
     FM280000 VRB03KT P6SM SCT070 SCT250
     FM281400 18006KT P6SM SCT040=



000
FTUS44 KMRX 271720
TAFTRI
TAF
KTRI 271720Z 2718/2818 24006KT P6SM SCT040 SCT250
     FM280000 VRB03KT P6SM SCT070
     FM280900 00000KT 3SM BR SKC
     FM281300 VRB03KT P6SM SCT040=



000
FTUS44 KMRX 271720
TAFTYS
TAF
KTYS 271720Z 2718/2818 22008KT P6SM VCTS BKN050CB
     FM280000 00000KT P6SM SCT070 SCT250
     FM281400 VRB03KT P6SM SCT040=



000
FTUS44 KMRX 271134
TAFTRI
TAF
KTRI 271134Z 2712/2812 VRB04KT P6SM SCT050 BKN200
      TEMPO 2712/2713 4SM BR SCT004
     FM271900 19006KT P6SM VCTS SCT050CB BKN200
     FM280000 VRB03KT P6SM SCT070 BKN250
     FM280700 00000KT 3SM BR SCT250
     FM280900 00000KT 1SM BR SCT002=



000
FTUS44 KMRX 271134
TAFCHA
TAF
KCHA 271134Z 2712/2812 17006KT P6SM SCT050 BKN250
     FM271900 16007KT P6SM VCTS SCT050CB BKN200
     FM280000 VRB03KT P6SM SCT070 BKN250=



000
FTUS44 KMRX 271134
TAFTYS
TAF
KTYS 271134Z 2712/2812 22006KT P6SM SCT040 BKN250
     FM271900 23008KT P6SM VCTS SCT050CB BKN200
     FM280000 VRB03KT P6SM SCT070 BKN200=



000
FTUS44 KMRX 262327
TAFTRI
TAF
KTRI 262327Z 2700/2724 00000KT P6SM SCT040 SCT150
     FM270930 00000KT 5SM BR SCT040 BKN100
      TEMPO 2710/2713 2SM BR SCT002
     FM271300 VRB04KT P6SM SCT050 BKN200
     FM272000 18005KT P6SM VCTS SCT050CB BKN200=



000
FTUS44 KMRX 262327
TAFTYS
TAF
KTYS 262327Z 2700/2724 VRB03KT P6SM SCT040 SCT100
     FM270930 VRB02KT 5SM BR FEW002 SCT040
     FM271300 22006KT P6SM SCT050 BKN200
     FM272000 23007KT P6SM VCTS SCT050CB BKN200=



000
FTUS44 KMRX 262327
TAFCHA
TAF
KCHA 262327Z 2700/2724 VRB04KT P6SM SCT050 SCT100
     FM271400 18006KT P6SM SCT050 BKN200
     FM272000 18006KT P6SM VCTS SCT050CB BKN200=



    US Dept of Commerce
    National Oceanic and Atmospheric Administration
    National Weather Service
    1325 East West Highway
    Silver Spring, MD 20910
    Page Author: NWS Internet Services Team
Disclaimer
Information Quality
Credits
Glossary
Privacy Policy
Freedom of Information Act (FOIA)
About Us
Career Opportunities